Time;durP1;ratioP1;P1;durP2;ratioP2;P2;SDS_P1;SDS_P2;PMS_P1;PMS_P2;Temp;Humidity;BMP_temperature;BMP_pressure;BME280_temperature;BME280_humidity;BME280_pressure;Samples;Min_cycle;Max_cycle;Signal;HPM_P1;HPM_P2
2022/11/29 00:01:14;;;;;;;54.03;18.42;;;5.30;99.90;;;;;;5090878;28;20066;-86
2022/11/29 00:03:40;;;;;;;70.13;19.85;;;5.30;99.90;;;;;;5088036;28;20440;-86
2022/11/29 00:06:08;;;;;;;107.65;20.05;;;5.30;99.90;;;;;;5096071;28;20055;-87
2022/11/29 00:08:34;;;;;;;62.10;19.45;;;5.30;99.90;;;;;;5074583;28;20028;-87
2022/11/29 00:11:05;;;;;;;95.22;28.63;;;5.30;99.90;;;;;;5086046;28;20157;-86
2022/11/29 00:13:31;;;;;;;66.97;19.70;;;5.30;99.90;;;;;;5089430;28;20101;-86
2022/11/29 00:16:06;;;;;;;218.73;36.15;;;5.30;99.90;;;;;;5078209;28;20093;-87
2022/11/29 00:18:32;;;;;;;78.30;21.02;;;5.30;99.90;;;;;;5102388;28;20036;-86
2022/11/29 00:20:58;;;;;;;95.35;25.77;;;5.20;99.90;;;;;;5092019;28;20024;-86
2022/11/29 00:23:23;;;;;;;76.07;18.85;;;5.30;99.90;;;;;;5099655;28;20047;-86
2022/11/29 00:25:49;;;;;;;48.40;16.88;;;5.30;99.90;;;;;;5095435;28;20038;-86
2022/11/29 00:28:15;;;;;;;65.57;17.25;;;5.20;99.90;;;;;;5098530;28;20073;-86
2022/11/29 00:30:40;;;;;;;49.67;14.68;;;5.20;99.90;;;;;;5098226;28;20119;-85
2022/11/29 00:33:06;;;;;;;74.80;17.98;;;5.30;99.90;;;;;;5079248;28;20598;-84
2022/11/29 00:35:32;;;;;;;167.00;22.02;;;5.20;99.90;;;;;;5105352;28;20038;-84
2022/11/29 00:37:57;;;;;;;45.67;14.80;;;5.20;99.90;;;;;;5077922;28;20023;-85
2022/11/29 00:40:23;;;;;;;192.65;21.85;;;5.20;99.90;;;;;;5104835;28;20028;-84
2022/11/29 00:42:49;;;;;;;59.85;15.55;;;5.20;99.90;;;;;;5091395;28;20031;-84
2022/11/29 00:45:14;;;;;;;40.65;14.35;;;5.20;99.90;;;;;;5093036;28;20024;-84
2022/11/29 00:47:40;;;;;;;45.25;16.60;;;5.20;99.90;;;;;;5091743;28;20032;-84
2022/11/29 00:50:06;;;;;;;28.58;12.45;;;5.30;99.90;;;;;;5095206;28;20464;-84
2022/11/29 00:52:32;;;;;;;39.13;13.70;;;5.30;99.90;;;;;;5105296;28;20051;-85
2022/11/29 00:54:57;;;;;;;34.85;13.95;;;5.30;99.90;;;;;;5080644;28;20735;-84
2022/11/29 00:57:35;;;;;;;32.63;13.07;;;5.30;99.90;;;;;;5104368;28;20031;-84
2022/11/29 01:00:01;;;;;;;38.17;14.15;;;5.30;99.90;;;;;;5069670;28;20524;-84
2022/11/29 01:02:27;;;;;;;34.80;13.48;;;5.30;99.90;;;;;;5085636;28;20103;-84
2022/11/29 01:04:52;;;;;;;37.45;13.35;;;5.30;99.90;;;;;;5097961;28;20050;-84
2022/11/29 01:07:18;;;;;;;44.10;14.38;;;5.30;99.90;;;;;;5104003;28;20016;-84
2022/11/29 01:09:44;;;;;;;48.13;17.42;;;5.30;99.90;;;;;;5100431;28;20115;-85
2022/11/29 01:12:09;;;;;;;54.80;17.30;;;5.30;99.90;;;;;;5099853;28;20027;-84
2022/11/29 01:14:35;;;;;;;59.05;18.40;;;5.30;99.90;;;;;;5087480;28;20487;-84
2022/11/29 01:17:10;;;;;;;53.42;17.35;;;5.30;99.90;;;;;;5089948;28;20675;-85
2022/11/29 01:19:37;;;;;;;56.15;17.83;;;5.30;99.90;;;;;;5086684;28;20039;-87
2022/11/29 01:22:02;;;;;;;60.38;19.92;;;5.30;99.90;;;;;;5101689;28;20028;-86
2022/11/29 01:24:29;;;;;;;78.65;21.27;;;5.30;99.90;;;;;;5093868;28;20023;-84
2022/11/29 01:26:55;;;;;;;79.13;22.77;;;5.30;99.90;;;;;;5101796;28;20028;-85
2022/11/29 01:29:20;;;;;;;87.10;23.65;;;5.30;99.90;;;;;;5096273;28;20042;-85
2022/11/29 01:31:46;;;;;;;108.57;20.92;;;5.30;99.90;;;;;;5092907;28;20033;-84
2022/11/29 01:34:11;;;;;;;73.75;17.23;;;5.30;99.90;;;;;;5105939;28;20046;-85
2022/11/29 01:36:37;;;;;;;68.75;18.75;;;5.40;99.90;;;;;;5093825;28;20029;-85
2022/11/29 01:39:04;;;;;;;102.60;23.60;;;5.30;99.90;;;;;;5100468;28;20118;-85
2022/11/29 01:41:32;;;;;;;73.72;18.80;;;5.30;99.90;;;;;;5095869;28;20027;-84
2022/11/29 01:44:02;;;;;;;190.20;28.27;;;5.30;99.90;;;;;;5098365;28;20031;-84
2022/11/29 01:46:34;;;;;;;203.75;26.10;;;5.30;99.90;;;;;;5094483;28;20076;-85
2022/11/29 01:49:14;;;;;;;85.38;19.98;;;5.30;99.90;;;;;;5092320;28;20042;-85
2022/11/29 01:51:44;;;;;;;67.47;13.60;;;5.30;99.90;;;;;;5098503;28;20074;-85
2022/11/29 01:54:12;;;;;;;191.10;15.80;;;5.30;99.90;;;;;;5098428;28;20032;-85
2022/11/29 01:56:39;;;;;;;75.65;12.40;;;5.30;99.90;;;;;;5099895;28;20092;-85
2022/11/29 01:59:09;;;;;;;127.30;14.60;;;5.30;99.90;;;;;;5080790;28;20023;-84
2022/11/29 02:01:36;;;;;;;48.80;10.43;;;5.20;99.90;;;;;;5092720;28;20505;-84
2022/11/29 02:04:03;;;;;;;85.80;11.93;;;5.20;99.90;;;;;;5099812;28;20032;-85
2022/11/29 02:06:29;;;;;;;53.55;10.07;;;5.20;99.90;;;;;;5091618;28;20027;-84
2022/11/29 02:08:55;;;;;;;27.80;9.27;;;5.20;99.90;;;;;;5083561;28;20036;-87
2022/11/29 02:11:46;;;;;;;47.90;11.98;;;5.20;99.90;;;;;;5102174;28;20030;-86
2022/11/29 02:14:29;;;;;;;37.83;11.75;;;5.20;99.90;;;;;;5089468;28;20066;-85
2022/11/29 02:17:07;;;;;;;36.47;10.52;;;5.30;99.90;;;;;;5109882;28;20050;-85
2022/11/29 02:20:10;;;;;;;139.20;14.63;;;5.30;99.90;;;;;;5094106;28;20029;-84
2022/11/29 02:22:58;;;;;;;49.83;10.75;;;5.30;99.90;;;;;;5094477;28;20039;-85
2022/11/29 02:25:50;;;;;;;41.42;11.25;;;5.30;99.90;;;;;;5101191;28;20026;-85
2022/11/29 02:28:56;;;;;;;160.63;16.60;;;5.20;99.90;;;;;;5084781;28;20081;-84
2022/11/29 02:31:24;;;;;;;147.52;15.48;;;5.20;99.90;;;;;;5075005;28;20495;-85
2022/11/29 02:34:05;;;;;;;130.88;14.45;;;5.20;99.90;;;;;;5126150;27;20421;-84
2022/11/29 02:36:41;;;;;;;136.13;14.25;;;5.20;99.90;;;;;;5094234;28;20028;-85
2022/11/29 02:39:18;;;;;;;170.77;15.63;;;5.10;99.90;;;;;;5095252;28;20114;-85
2022/11/29 02:42:02;;;;;;;22.85;8.70;;;5.10;99.90;;;;;;5080134;28;20033;-84
2022/11/29 02:44:48;;;;;;;60.78;11.07;;;5.10;99.90;;;;;;5097393;28;20382;-84
2022/11/29 02:47:24;;;;;;;20.08;8.65;;;5.10;99.90;;;;;;5080928;28;20028;-84
2022/11/29 02:50:08;;;;;;;139.50;13.75;;;5.10;99.90;;;;;;5094597;28;20042;-84
2022/11/29 02:52:44;;;;;;;106.72;12.95;;;5.10;99.90;;;;;;5101611;28;20047;-85
2022/11/29 02:55:19;;;;;;;23.75;8.77;;;5.10;99.90;;;;;;5075103;28;20039;-85
2022/11/29 02:58:17;;;;;;;48.75;10.75;;;5.10;99.90;;;;;;5104549;28;20057;-84
2022/11/29 03:00:52;;;;;;;33.88;9.27;;;5.10;99.90;;;;;;5075849;28;20487;-84
2022/11/29 03:03:45;;;;;;;79.53;13.25;;;5.20;99.90;;;;;;5086544;28;20127;-85
2022/11/29 03:06:17;;;;;;;35.47;10.10;;;5.20;99.90;;;;;;5089786;28;20027;-85
2022/11/29 03:09:06;;;;;;;37.67;10.65;;;5.20;99.90;;;;;;5098683;28;20066;-84
2022/11/29 03:11:32;;;;;;;41.03;10.63;;;5.20;99.90;;;;;;5104727;28;20027;-85
2022/11/29 03:14:04;;;;;;;31.15;10.60;;;5.20;99.90;;;;;;5079568;28;20081;-85
2022/11/29 03:16:56;;;;;;;35.70;11.10;;;5.20;99.90;;;;;;5099287;28;20032;-84
2022/11/29 03:19:33;;;;;;;49.38;12.65;;;5.20;99.90;;;;;;5066529;28;20064;-84
2022/11/29 03:22:24;;;;;;;37.38;11.38;;;5.20;99.90;;;;;;5090884;28;20025;-85
2022/11/29 03:25:13;;;;;;;46.80;13.57;;;5.10;99.90;;;;;;5094361;28;20552;-84
2022/11/29 03:28:10;;;;;;;24.15;11.90;;;5.20;99.90;;;;;;5087049;28;20089;-85
2022/11/29 03:30:39;;;;;;;26.38;11.35;;;5.20;99.90;;;;;;5098957;28;20486;-85
2022/11/29 03:33:10;;;;;;;21.52;11.50;;;5.20;99.90;;;;;;5090887;28;20024;-84
2022/11/29 03:35:54;;;;;;;;;;;5.10;99.90;;;;;;5080194;28;20443;-84
2022/11/29 03:38:43;;;;;;;24.73;11.93;;;5.20;99.90;;;;;;5084078;28;19915;-85
2022/11/29 03:41:09;;;;;;;27.70;10.93;;;5.20;99.90;;;;;;5090239;28;20027;-85
2022/11/29 03:43:51;;;;;;;26.98;10.48;;;5.20;99.90;;;;;;5101235;28;20015;-84
2022/11/29 03:46:56;;;;;;;29.05;10.77;;;5.20;99.90;;;;;;5073815;28;20031;-84
2022/11/29 03:49:27;;;;;;;26.08;10.88;;;5.20;99.90;;;;;;5065029;28;20036;-84
2022/11/29 03:52:18;;;;;;;29.33;9.95;;;5.20;99.90;;;;;;5096599;28;20051;-84
2022/11/29 03:54:43;;;;;;;22.88;10.40;;;5.20;99.90;;;;;;5082053;28;20082;-84
2022/11/29 03:57:12;;;;;;;25.52;11.85;;;5.30;99.90;;;;;;5080790;28;20058;-85
2022/11/29 03:59:51;;;;;;;19.98;8.93;;;5.20;99.90;;;;;;5081738;28;20032;-84
2022/11/29 04:02:22;;;;;;;22.98;9.55;;;5.30;99.90;;;;;;5064309;28;20097;-85
2022/11/29 04:05:07;;;;;;;;;;;5.30;99.90;;;;;;5081846;28;20099;-84
2022/11/29 04:08:10;;;;;;;23.48;10.35;;;5.30;99.90;;;;;;5095151;28;19941;-84
2022/11/29 04:10:49;;;;;;;33.72;11.77;;;5.30;99.90;;;;;;5094465;28;20070;-85
2022/11/29 04:13:43;;;;;;;34.35;11.68;;;5.20;99.90;;;;;;5099590;28;20028;-85
2022/11/29 04:16:50;;;;;;;26.60;11.95;;;5.20;99.90;;;;;;5082472;28;20063;-84
2022/11/29 04:19:34;;;;;;;45.53;12.45;;;5.30;99.90;;;;;;5090761;28;20680;-84
2022/11/29 04:22:28;;;;;;;37.05;11.35;;;5.20;99.90;;;;;;5097416;27;20023;-84
2022/11/29 04:25:34;;;;;;;42.33;10.18;;;5.20;99.90;;;;;;5081056;28;20143;-84
2022/11/29 04:28:11;;;;;;;39.55;10.27;;;5.20;99.90;;;;;;5093676;28;20023;-84
2022/11/29 04:30:46;;;;;;;68.35;11.32;;;5.20;99.90;;;;;;5098466;28;20019;-84
2022/11/29 04:33:29;;;;;;;65.32;11.82;;;5.20;99.90;;;;;;5099385;28;20501;-84
2022/11/29 04:36:34;;;;;;;63.85;11.13;;;5.10;99.90;;;;;;5097381;28;20036;-85
2022/11/29 04:39:00;;;;;;;37.05;8.98;;;5.10;99.90;;;;;;5087927;28;20024;-85
2022/11/29 04:41:44;;;;;;;65.38;10.45;;;5.10;99.90;;;;;;5098403;28;20032;-84
2022/11/29 04:44:33;;;;;;;38.33;10.85;;;5.10;99.90;;;;;;5075043;28;20391;-85
2022/11/29 04:47:16;;;;;;;44.40;12.13;;;5.10;99.90;;;;;;5085743;28;20039;-85
2022/11/29 04:50:08;;;;;;;57.75;9.98;;;5.10;99.90;;;;;;5077410;28;20085;-85
2022/11/29 04:53:00;;;;;;;41.42;10.23;;;5.10;99.90;;;;;;5100131;28;20126;-85
2022/11/29 04:55:52;;;;;;;30.45;9.77;;;5.10;99.90;;;;;;5071663;28;20112;-85
2022/11/29 04:58:42;;;;;;;59.10;10.27;;;5.10;99.90;;;;;;5095118;28;20447;-84
2022/11/29 05:01:35;;;;;;;31.60;9.75;;;5.10;99.90;;;;;;5073684;28;20030;-87
2022/11/29 05:04:39;;;;;;;32.33;9.50;;;5.10;99.90;;;;;;5089396;28;20016;-85
2022/11/29 05:07:17;;;;;;;33.08;8.80;;;5.10;99.90;;;;;;5080535;28;20074;-88
2022/11/29 05:09:57;;;;;;;45.22;9.77;;;5.10;99.90;;;;;;5094755;28;20028;-88
2022/11/29 05:12:41;;;;;;;52.85;9.68;;;5.10;99.90;;;;;;5083907;28;20042;-88
2022/11/29 05:15:25;;;;;;;43.38;11.23;;;5.10;99.90;;;;;;5086723;28;20031;-88
2022/11/29 05:18:35;;;;;;;49.80;10.20;;;5.10;99.90;;;;;;5101000;28;20039;-90
2022/11/29 05:21:15;;;;;;;52.58;10.27;;;5.10;99.90;;;;;;5079649;28;20025;-90
2022/11/29 05:24:02;;;;;;;48.20;11.98;;;5.20;99.90;;;;;;5103619;28;20648;-90
2022/11/29 05:26:54;;;;;;;75.28;14.77;;;5.20;99.90;;;;;;5082901;28;20025;-90
2022/11/29 05:29:25;;;;;;;;;;;5.20;99.90;;;;;;5101818;28;20032;-90
2022/11/29 05:32:28;;;;;;;43.88;11.15;;;5.20;99.90;;;;;;5100367;28;19908;-90
2022/11/29 05:35:19;;;;;;;40.63;10.63;;;5.20;99.90;;;;;;5087898;28;20112;-90
2022/11/29 05:37:51;;;;;;;;;;;5.20;99.90;;;;;;5100353;28;20027;-90
2022/11/29 05:40:52;;;;;;;49.35;11.18;;;5.20;99.90;;;;;;5101491;28;19950;-90
2022/11/29 05:43:31;;;;;;;40.97;10.80;;;5.20;99.90;;;;;;5092918;28;20054;-90
2022/11/29 05:46:22;;;;;;;43.65;11.27;;;5.20;99.90;;;;;;5085501;28;20588;-90
2022/11/29 05:49:12;;;;;;;46.90;10.68;;;5.20;99.90;;;;;;5091609;28;20032;-90
2022/11/29 05:52:05;;;;;;;51.35;11.02;;;5.20;99.90;;;;;;5077202;28;20024;-90
2022/11/29 05:54:45;;;;;;;54.13;11.90;;;5.20;99.90;;;;;;5090256;28;20049;-90
2022/11/29 05:57:32;;;;;;;49.15;11.68;;;5.20;99.90;;;;;;5099923;28;20034;-90
2022/11/29 06:00:01;;;;;;;43.25;11.63;;;5.20;99.90;;;;;;5076541;28;20490;-90
2022/11/29 06:02:56;;;;;;;61.58;15.05;;;5.20;99.90;;;;;;5107531;28;20115;-88
2022/11/29 06:05:41;;;;;;;113.32;40.58;;;5.20;99.90;;;;;;5078343;28;20111;-89
2022/11/29 06:08:24;;;;;;;56.70;12.93;;;5.20;99.90;;;;;;5093018;28;20024;-90
2022/11/29 06:11:13;;;;;;;73.25;25.65;;;5.20;99.90;;;;;;5098452;28;20064;-90
2022/11/29 06:13:53;;;;;;;81.40;21.25;;;5.20;99.90;;;;;;5102599;28;20034;-90
2022/11/29 06:16:28;;;;;;;66.88;14.88;;;5.10;99.90;;;;;;5104300;28;20356;-89
2022/11/29 06:19:32;;;;;;;80.10;24.70;;;5.20;99.90;;;;;;5100994;28;20488;-89
2022/11/29 06:22:20;;;;;;;137.05;45.58;;;5.10;99.90;;;;;;5083209;28;20027;-89
2022/11/29 06:25:10;;;;;;;82.57;37.00;;;5.10;99.90;;;;;;5099418;28;20036;-89
2022/11/29 06:27:39;;;;;;;55.58;14.23;;;5.10;99.90;;;;;;5081275;28;20045;-90
2022/11/29 06:30:12;;;;;;;44.78;11.63;;;5.10;99.90;;;;;;5082664;28;20395;-89
2022/11/29 06:32:49;;;;;;;87.68;15.60;;;5.10;99.90;;;;;;5090741;28;20028;-89
2022/11/29 06:35:27;;;;;;;54.55;12.63;;;5.10;99.90;;;;;;5088447;28;20538;-90
2022/11/29 06:37:56;;;;;;;60.42;11.88;;;5.10;99.90;;;;;;5098488;28;20038;-89
2022/11/29 06:40:22;;;;;;;106.78;13.57;;;5.10;99.90;;;;;;5091912;28;20058;-89
2022/11/29 06:42:48;;;;;;;70.18;10.40;;;5.10;99.90;;;;;;5098029;28;20052;-89
2022/11/29 06:45:15;;;;;;;61.00;12.70;;;5.10;99.90;;;;;;5087285;28;20107;-90
2022/11/29 06:47:56;;;;;;;61.63;11.73;;;5.10;99.90;;;;;;5088284;28;20059;-89
2022/11/29 06:50:31;;;;;;;40.92;13.10;;;5.10;99.90;;;;;;5101873;28;20023;-89
2022/11/29 06:53:08;;;;;;;57.67;13.50;;;5.00;99.90;;;;;;5075536;28;20024;-90
2022/11/29 06:56:15;;;;;;;103.80;12.77;;;5.00;99.90;;;;;;5106669;28;20028;-90
2022/11/29 06:58:46;;;;;;;64.13;12.63;;;5.10;99.90;;;;;;4984542;28;20525;-90
2022/11/29 07:01:31;;;;;;;47.78;10.40;;;5.10;99.90;;;;;;4991853;28;20037;-90
2022/11/29 07:04:21;;;;;;;38.60;10.77;;;5.10;99.90;;;;;;5042015;28;20382;-89
2022/11/29 07:06:47;;;;;;;28.02;9.05;;;5.10;99.90;;;;;;5079518;28;20054;-89
2022/11/29 07:09:38;;;;;;;32.10;11.52;;;5.10;99.90;;;;;;5084688;28;20387;-90
2022/11/29 07:12:04;;;;;;;61.75;14.88;;;5.10;99.90;;;;;;5095371;28;20035;-89
2022/11/29 07:14:30;;;;;;;84.57;17.58;;;5.10;99.90;;;;;;5093046;28;20423;-90
2022/11/29 07:17:29;;;;;;;130.23;20.27;;;5.10;99.90;;;;;;5110688;28;20046;-89
2022/11/29 07:20:16;;;;;;;179.98;20.30;;;5.20;99.90;;;;;;5083696;28;20023;-90
2022/11/29 07:22:54;;;;;;;76.68;16.33;;;5.20;99.90;;;;;;5077458;28;20028;-89
2022/11/29 07:25:38;;;;;;;65.32;18.15;;;5.20;99.90;;;;;;5084395;28;20023;-89
2022/11/29 07:28:28;;;;;;;95.32;20.58;;;5.20;99.90;;;;;;5080520;28;20027;-90
2022/11/29 07:31:22;;;;;;;64.82;20.42;;;5.20;99.90;;;;;;5081034;28;20103;-90
2022/11/29 07:34:11;;;;;;;68.75;18.88;;;5.20;99.90;;;;;;5109066;28;20036;-90
2022/11/29 07:37:00;;;;;;;55.92;20.08;;;5.30;99.90;;;;;;5077673;28;20066;-89
2022/11/29 07:40:01;;;;;;;60.55;20.73;;;5.30;99.90;;;;;;5078727;28;20085;-90
2022/11/29 07:42:57;;;;;;;64.03;25.98;;;5.30;99.90;;;;;;5062825;28;20089;-90
2022/11/29 07:45:26;;;;;;;63.20;24.38;;;5.30;99.90;;;;;;5102706;28;20042;-89
2022/11/29 07:47:52;;;;;;;74.93;28.40;;;5.40;99.90;;;;;;5088400;28;20036;-90
2022/11/29 07:50:18;;;;;;;93.22;28.55;;;5.30;99.90;;;;;;5089682;28;20031;-90
2022/11/29 07:52:45;;;;;;;81.03;25.05;;;5.40;99.90;;;;;;5103849;28;20787;-89
2022/11/29 07:55:20;;;;;;;43.30;16.83;;;5.40;99.90;;;;;;5092049;28;20475;-90
2022/11/29 07:57:47;;;;;;;51.20;16.95;;;5.40;99.90;;;;;;5105090;28;20054;-89
2022/11/29 08:00:13;;;;;;;38.50;15.52;;;5.50;99.90;;;;;;5076467;28;20071;-89
2022/11/29 08:02:40;;;;;;;42.90;20.80;;;5.40;99.90;;;;;;5106461;28;20077;-90
2022/11/29 08:05:06;;;;;;;30.02;13.80;;;5.50;99.90;;;;;;5079280;28;20059;-90
2022/11/29 08:07:37;;;;;;;35.15;15.48;;;5.50;99.90;;;;;;5093913;28;20059;-85
2022/11/29 08:10:07;;;;;;;34.25;18.17;;;5.40;99.90;;;;;;5097295;28;20483;-90
2022/11/29 08:12:33;;;;;;;21.92;12.10;;;5.50;99.90;;;;;;5086186;28;20090;-90
2022/11/29 08:14:59;;;;;;;17.50;10.02;;;5.50;99.90;;;;;;5081735;28;20519;-91
2022/11/29 08:17:25;;;;;;;22.00;12.70;;;5.50;99.90;;;;;;5085259;28;20034;-90
2022/11/29 08:19:51;;;;;;;21.48;12.57;;;5.50;99.90;;;;;;5066880;28;20028;-90
2022/11/29 08:22:17;;;;;;;19.38;12.18;;;5.50;99.90;;;;;;5076096;28;20601;-91
2022/11/29 08:24:43;;;;;;;27.95;16.30;;;5.50;99.90;;;;;;5096782;28;20059;-91
2022/11/29 08:27:08;;;;;;;26.38;15.40;;;5.50;99.90;;;;;;5092683;28;20028;-90
2022/11/29 08:29:34;;;;;;;26.38;14.52;;;5.60;99.90;;;;;;5093020;28;20036;-90
2022/11/29 08:32:00;;;;;;;25.55;13.80;;;5.70;99.90;;;;;;5075695;28;20463;-91
2022/11/29 08:34:26;;;;;;;24.77;13.98;;;5.80;99.90;;;;;;5076193;28;20119;-91
2022/11/29 08:36:55;;;;;;;25.58;13.82;;;5.80;99.90;;;;;;5068523;28;20475;-91
2022/11/29 08:39:21;;;;;;;24.83;14.07;;;5.80;99.90;;;;;;5085848;28;20071;-91
2022/11/29 08:41:48;;;;;;;24.02;15.15;;;5.90;99.90;;;;;;5076171;28;20131;-91
2022/11/29 08:44:14;;;;;;;22.65;13.93;;;5.90;99.90;;;;;;5074859;28;20024;-91
2022/11/29 08:49:24;;;;;;;17.80;12.18;;;6.00;99.90;;;;;;5084683;28;20480;-90
2022/11/29 08:53:40;;;;;;;21.98;14.57;;;6.10;99.90;;;;;;5076474;28;20036;-91
2022/11/29 08:54:38;;;;;;;20.95;11.68;;;6.00;99.90;;;;;;5088701;28;20063;-90
2022/11/29 08:57:04;;;;;;;18.63;12.07;;;5.90;99.90;;;;;;5095821;28;20020;-90
2022/11/29 08:59:30;;;;;;;17.52;12.63;;;5.80;99.90;;;;;;5083912;28;20374;-90
2022/11/29 09:01:56;;;;;;;23.83;14.57;;;5.90;99.90;;;;;;5101497;27;20015;-91
2022/11/29 09:04:21;;;;;;;24.42;15.18;;;5.80;99.90;;;;;;5090427;28;20020;-90
2022/11/29 09:06:50;;;;;;;22.25;13.90;;;5.90;99.90;;;;;;5099476;28;20024;-90
2022/11/29 09:10:04;;;;;;;19.67;12.13;;;5.90;99.90;;;;;;5102615;28;20425;-92
2022/11/29 09:12:35;;;;;;;14.00;10.48;;;5.90;99.90;;;;;;5073136;28;20032;-90
2022/11/29 09:15:02;;;;;;;13.43;9.63;;;5.90;99.90;;;;;;5089487;28;20028;-90
2022/11/29 09:17:28;;;;;;;12.07;9.30;;;5.90;99.90;;;;;;5106383;28;20372;-90
2022/11/29 09:19:53;;;;;;;10.07;7.82;;;5.90;99.90;;;;;;5101786;28;20026;-90
2022/11/29 09:22:19;;;;;;;10.20;7.45;;;5.90;99.90;;;;;;5100284;28;20098;-90
2022/11/29 09:24:45;;;;;;;13.32;8.80;;;5.90;99.90;;;;;;5090685;28;20028;-89
2022/11/29 09:27:11;;;;;;;13.45;9.38;;;5.70;99.90;;;;;;5102529;28;20776;-90
2022/11/29 09:29:37;;;;;;;11.43;8.90;;;5.70;99.90;;;;;;5085744;28;20112;-90
2022/11/29 09:32:03;;;;;;;20.73;11.07;;;5.70;99.90;;;;;;5084937;28;20028;-89
2022/11/29 09:34:29;;;;;;;17.77;11.23;;;5.70;99.90;;;;;;5106206;28;20038;-90
2022/11/29 09:36:54;;;;;;;15.95;10.73;;;5.80;99.90;;;;;;5102639;28;20036;-90
2022/11/29 09:39:20;;;;;;;16.80;10.65;;;5.80;99.90;;;;;;5098153;28;20108;-90
2022/11/29 09:42:11;;;;;;;13.30;9.35;;;5.80;99.90;;;;;;5100998;28;20024;-90
2022/11/29 09:44:42;;;;;;;11.20;8.52;;;5.80;99.90;;;;;;5082824;28;20027;-90
2022/11/29 09:47:08;;;;;;;;;;;5.80;99.90;;;;;;5105257;28;20020;-89
2022/11/29 09:49:54;;;;;;;11.05;8.60;;;5.90;99.90;;;;;;5101483;28;20263;-90
2022/11/29 09:52:35;;;;;;;11.90;9.23;;;5.90;99.90;;;;;;5101642;28;20470;-90
2022/11/29 09:55:19;;;;;;;12.77;9.20;;;5.90;99.90;;;;;;5076711;28;20027;-90
2022/11/29 09:57:45;;;;;;;11.25;8.30;;;5.90;99.90;;;;;;5107487;28;20293;-90
2022/11/29 10:00:16;;;;;;;15.20;9.70;;;6.00;99.90;;;;;;5078848;28;20021;-90
2022/11/29 10:02:57;;;;;;;12.07;9.70;;;6.00;99.90;;;;;;5108165;28;20031;-90
2022/11/29 10:05:27;;;;;;;13.05;9.55;;;6.10;99.90;;;;;;5079222;28;20036;-90
2022/11/29 10:08:20;;;;;;;12.35;9.45;;;6.20;99.90;;;;;;5102621;28;20024;-90
2022/11/29 10:10:49;;;;;;;15.38;10.98;;;6.20;99.90;;;;;;5093849;28;20024;-90
2022/11/29 10:13:28;;;;;;;13.07;9.48;;;6.30;99.90;;;;;;5093504;28;20023;-90
2022/11/29 10:16:00;;;;;;;16.88;10.93;;;6.40;99.90;;;;;;5083926;28;20026;-90
2022/11/29 10:18:50;;;;;;;15.38;11.23;;;6.30;99.90;;;;;;5093062;28;20069;-90
2022/11/29 10:21:24;;;;;;;12.25;9.45;;;6.50;99.90;;;;;;5075975;28;20016;-90
2022/11/29 10:24:08;;;;;;;13.50;8.75;;;6.60;99.90;;;;;;5108123;28;20115;-90
2022/11/29 10:26:34;;;;;;;15.30;9.32;;;6.60;99.90;;;;;;5093875;28;20036;-90
2022/11/29 10:29:00;;;;;;;10.85;8.45;;;6.60;99.90;;;;;;5093493;28;20024;-91
2022/11/29 10:31:30;;;;;;;12.02;8.82;;;6.60;99.90;;;;;;5079421;28;20119;-90
2022/11/29 10:33:59;;;;;;;10.55;7.55;;;6.70;99.90;;;;;;5104894;28;20028;-91
2022/11/29 10:36:35;;;;;;;8.55;6.70;;;6.70;99.90;;;;;;5074939;28;20029;-90
2022/11/29 10:39:05;;;;;;;8.75;7.40;;;6.80;99.90;;;;;;5091557;28;20089;-91
2022/11/29 10:41:31;;;;;;;9.60;7.28;;;6.90;99.90;;;;;;5071045;28;20028;-90
2022/11/29 10:43:58;;;;;;;7.40;6.50;;;7.00;99.90;;;;;;5076266;28;20387;-90
2022/11/29 10:46:30;;;;;;;9.30;6.45;;;7.00;99.90;;;;;;5084774;28;20066;-90
2022/11/29 10:48:57;;;;;;;;;;;7.00;99.90;;;;;;5092738;28;20028;-90
2022/11/29 10:51:23;;;;;;;15.30;7.97;;;6.90;99.90;;;;;;5066570;28;19944;-90
2022/11/29 10:53:53;;;;;;;14.80;8.77;;;6.90;99.90;;;;;;5085834;28;20110;-90
2022/11/29 10:56:28;;;;;;;9.35;6.63;;;6.90;99.90;;;;;;5092692;28;20039;-90
2022/11/29 10:59:03;;;;;;;12.88;9.35;;;6.80;99.90;;;;;;5088638;28;20554;-90
2022/11/29 11:01:36;;;;;;;10.68;8.07;;;6.80;99.90;;;;;;5076314;28;20077;-90
2022/11/29 11:04:03;;;;;;;10.40;7.32;;;6.80;99.90;;;;;;5079292;28;20271;-90
2022/11/29 11:06:55;;;;;;;12.68;8.45;;;6.80;99.90;;;;;;5072868;28;20017;-90
2022/11/29 11:09:35;;;;;;;33.65;19.50;;;6.80;99.90;;;;;;5071908;28;20082;-90
2022/11/29 11:12:05;;;;;;;16.48;11.20;;;6.80;99.90;;;;;;5073621;28;20043;-90
2022/11/29 11:14:36;;;;;;;28.30;19.33;;;6.80;99.90;;;;;;5073425;28;20467;-90
2022/11/29 11:17:31;;;;;;;16.15;12.68;;;6.70;99.90;;;;;;5058819;28;20107;-91
2022/11/29 11:19:59;;;;;;;17.27;13.45;;;6.70;99.90;;;;;;5068852;28;20138;-90
2022/11/29 11:22:26;;;;;;;13.32;9.13;;;6.80;99.90;;;;;;5064788;28;20050;-90
2022/11/29 11:24:59;;;;;;;12.50;9.25;;;6.90;99.90;;;;;;5073185;28;20032;-90
2022/11/29 11:27:38;;;;;;;17.02;11.40;;;6.80;99.90;;;;;;5089374;28;20031;-90
2022/11/29 11:30:16;;;;;;;15.75;10.73;;;6.80;99.90;;;;;;5067733;28;20024;-90
2022/11/29 11:33:18;;;;;;;18.88;13.15;;;6.90;99.90;;;;;;5093575;28;20059;-90
2022/11/29 11:35:43;;;;;;;17.02;11.35;;;6.80;99.90;;;;;;5099833;28;20042;-91
2022/11/29 11:38:16;;;;;;;15.23;10.02;;;6.70;99.90;;;;;;5103578;28;20110;-90
2022/11/29 11:40:42;;;;;;;17.77;12.82;;;6.70;99.90;;;;;;5102756;28;20148;-91
2022/11/29 11:43:18;;;;;;;17.15;11.25;;;6.60;99.90;;;;;;5098835;28;20023;-90
2022/11/29 11:45:52;;;;;;;16.02;10.85;;;6.60;99.90;;;;;;5099059;28;20114;-90
2022/11/29 11:48:18;;;;;;;16.92;11.23;;;6.60;99.90;;;;;;5102034;28;20027;-90
2022/11/29 11:50:57;;;;;;;17.85;12.73;;;6.60;99.90;;;;;;5100555;28;20039;-90
2022/11/29 11:53:36;;;;;;;17.20;10.30;;;6.60;99.90;;;;;;5089432;28;20032;-89
2022/11/29 11:56:06;;;;;;;18.48;12.40;;;6.70;99.90;;;;;;5078245;28;20601;-89
2022/11/29 11:58:46;;;;;;;15.57;10.95;;;6.80;99.90;;;;;;5089926;28;20127;-90
2022/11/29 12:01:15;;;;;;;;;;;6.70;99.90;;;;;;5088692;28;20064;-90
2022/11/29 12:04:06;;;;;;;15.13;10.32;;;6.80;99.90;;;;;;5093401;28;19978;-90
2022/11/29 12:06:58;;;;;;;24.20;16.45;;;6.80;99.90;;;;;;5083460;28;20033;-90
2022/11/29 12:09:36;;;;;;;22.70;15.10;;;6.70;99.90;;;;;;5080953;28;20032;-89
2022/11/29 12:12:23;;;;;;;23.70;14.02;;;6.70;99.90;;;;;;5078593;28;20058;-89
2022/11/29 12:14:58;;;;;;;28.98;18.80;;;6.70;99.90;;;;;;5089031;28;20039;-90
2022/11/29 12:17:42;;;;;;;23.55;15.75;;;6.50;99.90;;;;;;5086958;28;20510;-90
2022/11/29 12:20:14;;;;;;;36.00;24.23;;;6.50;99.90;;;;;;5106055;27;20032;-89
2022/11/29 12:22:56;;;;;;;24.48;15.30;;;6.50;99.90;;;;;;5093334;28;20392;-89
2022/11/29 12:25:52;;;;;;;57.03;34.60;;;6.60;99.90;;;;;;5087706;28;20023;-90
2022/11/29 12:28:19;;;;;;;34.08;18.23;;;6.70;99.90;;;;;;5074103;28;20038;-89
2022/11/29 12:31:02;;;;;;;25.95;14.10;;;6.70;99.90;;;;;;5074429;28;20070;-89
2022/11/29 12:33:28;;;;;;;30.20;19.67;;;6.70;99.90;;;;;;5081283;28;20107;-90
2022/11/29 12:36:14;;;;;;;31.88;20.27;;;6.70;99.90;;;;;;5089351;28;20099;-90
2022/11/29 12:38:57;;;;;;;23.05;13.35;;;6.70;99.90;;;;;;5090654;28;20036;-89
2022/11/29 12:41:49;;;;;;;29.67;15.75;;;6.70;99.90;;;;;;5070996;28;20024;-90
2022/11/29 12:44:40;;;;;;;22.23;13.93;;;6.70;99.90;;;;;;5074442;28;20364;-89
2022/11/29 12:47:12;;;;;;;26.60;15.47;;;6.70;99.90;;;;;;5062175;28;20039;-89
2022/11/29 12:49:49;;;;;;;20.98;13.85;;;6.60;99.90;;;;;;5075506;28;20670;-89
2022/11/29 12:52:41;;;;;;;20.83;12.60;;;6.50;99.90;;;;;;5095410;28;20031;-89
2022/11/29 12:55:23;;;;;;;24.70;15.10;;;6.40;99.90;;;;;;5046344;28;20063;-89
2022/11/29 12:58:22;;;;;;;30.23;15.52;;;6.40;99.90;;;;;;5086569;28;20487;-89
2022/11/29 13:01:06;;;;;;;35.88;21.17;;;6.40;99.90;;;;;;5066225;28;20043;-89
2022/11/29 13:04:05;;;;;;;35.50;20.27;;;6.40;99.90;;;;;;5069828;28;20029;-90
2022/11/29 13:06:43;;;;;;;35.78;20.85;;;6.40;99.90;;;;;;5084007;28;20115;-89
2022/11/29 13:09:33;;;;;;;24.40;14.20;;;6.40;99.90;;;;;;5099957;28;20020;-90
2022/11/29 13:12:25;;;;;;;23.17;14.15;;;6.50;99.90;;;;;;5085949;28;20098;-89
2022/11/29 13:15:12;;;;;;;27.55;17.30;;;6.50;99.90;;;;;;5080569;28;20442;-89
2022/11/29 13:18:04;;;;;;;24.23;15.02;;;6.50;99.90;;;;;;5095301;28;20027;-89
2022/11/29 13:20:58;;;;;;;24.65;15.95;;;6.60;99.90;;;;;;5100239;28;20034;-89
2022/11/29 13:23:35;;;;;;;29.00;14.63;;;6.70;99.90;;;;;;5084497;28;20479;-89
2022/11/29 13:26:05;;;;;;;25.58;16.20;;;6.70;99.90;;;;;;5074439;28;20054;-89
2022/11/29 13:28:36;;;;;;;22.02;13.50;;;6.70;99.90;;;;;;5088745;28;20032;-89
2022/11/29 13:31:08;;;;;;;28.42;15.93;;;6.80;99.90;;;;;;5075332;28;20031;-89
2022/11/29 13:33:55;;;;;;;22.45;13.35;;;6.80;99.90;;;;;;5098146;28;20039;-89